sensor_id;sensor_type;location;lat;lon;timestamp;pressure;altitude;pressure_sealevel;temperature;humidity
48964;BME280;34776;48.180;16.420;2024-02-26T00:02:18;98610.75;;;7.29;65.11
48964;BME280;34776;48.180;16.420;2024-02-26T00:04:43;98608.19;;;7.28;65.14
48964;BME280;34776;48.180;16.420;2024-02-26T00:07:09;98599.34;;;7.29;65.07
48964;BME280;34776;48.180;16.420;2024-02-26T00:09:34;98602.91;;;7.28;65.18
48964;BME280;34776;48.180;16.420;2024-02-26T00:12:04;98597.69;;;7.26;65.04
48964;BME280;34776;48.180;16.420;2024-02-26T00:14:31;98589.88;;;7.25;65.11
48964;BME280;34776;48.180;16.420;2024-02-26T00:16:56;98596.94;;;7.24;65.16
48964;BME280;34776;48.180;16.420;2024-02-26T00:19:22;98596.94;;;7.24;65.34
48964;BME280;34776;48.180;16.420;2024-02-26T00:21:47;98595.44;;;7.20;65.08
48964;BME280;34776;48.180;16.420;2024-02-26T00:24:13;98596.44;;;7.18;65.16
48964;BME280;34776;48.180;16.420;2024-02-26T00:26:38;98601.84;;;7.16;65.29
48964;BME280;34776;48.180;16.420;2024-02-26T00:29:03;98607.34;;;7.11;65.39
48964;BME280;34776;48.180;16.420;2024-02-26T00:31:29;98600.38;;;7.10;65.43
48964;BME280;34776;48.180;16.420;2024-02-26T00:33:55;98605.81;;;7.07;65.52
48964;BME280;34776;48.180;16.420;2024-02-26T00:36:20;98604.13;;;7.06;65.60
48964;BME280;34776;48.180;16.420;2024-02-26T00:38:47;98602.59;;;7.02;65.44
48964;BME280;34776;48.180;16.420;2024-02-26T00:41:17;98602.78;;;6.99;65.85
48964;BME280;34776;48.180;16.420;2024-02-26T00:43:43;98595.22;;;6.93;66.13
48964;BME280;34776;48.180;16.420;2024-02-26T00:46:08;98594.69;;;6.86;66.39
48964;BME280;34776;48.180;16.420;2024-02-26T00:48:33;98586.09;;;6.83;66.54
48964;BME280;34776;48.180;16.420;2024-02-26T00:50:59;98595.88;;;6.81;66.59
48964;BME280;34776;48.180;16.420;2024-02-26T00:53:24;98586.44;;;6.77;66.75
48964;BME280;34776;48.180;16.420;2024-02-26T00:55:50;98591.88;;;6.74;66.84
48964;BME280;34776;48.180;16.420;2024-02-26T00:58:15;98591.22;;;6.70;66.80
48964;BME280;34776;48.180;16.420;2024-02-26T01:00:41;98586.94;;;6.67;66.78
48964;BME280;34776;48.180;16.420;2024-02-26T01:03:08;98583.69;;;6.62;66.93
48964;BME280;34776;48.180;16.420;2024-02-26T01:05:35;98576.03;;;6.58;66.82
48964;BME280;34776;48.180;16.420;2024-02-26T01:08:01;98571.94;;;6.52;67.29
48964;BME280;34776;48.180;16.420;2024-02-26T01:10:26;98571.09;;;6.52;67.75
48964;BME280;34776;48.180;16.420;2024-02-26T01:12:51;98575.41;;;6.53;68.13
48964;BME280;34776;48.180;16.420;2024-02-26T01:15:17;98564.09;;;6.50;68.38
48964;BME280;34776;48.180;16.420;2024-02-26T01:17:44;98563.25;;;6.50;68.19
48964;BME280;34776;48.180;16.420;2024-02-26T01:20:10;98552.13;;;6.45;68.32
48964;BME280;34776;48.180;16.420;2024-02-26T01:22:35;98559.41;;;6.40;68.26
48964;BME280;34776;48.180;16.420;2024-02-26T01:25:01;98556.06;;;6.36;68.48
48964;BME280;34776;48.180;16.420;2024-02-26T01:27:26;98549.38;;;6.30;68.55
48964;BME280;34776;48.180;16.420;2024-02-26T01:29:52;98543.31;;;6.28;68.73
48964;BME280;34776;48.180;16.420;2024-02-26T01:32:19;98539.91;;;6.26;68.52
48964;BME280;34776;48.180;16.420;2024-02-26T01:34:46;98545.34;;;6.23;68.73
48964;BME280;34776;48.180;16.420;2024-02-26T01:37:13;98537.75;;;6.17;68.81
48964;BME280;34776;48.180;16.420;2024-02-26T01:39:38;98538.13;;;6.11;68.74
48964;BME280;34776;48.180;16.420;2024-02-26T01:42:07;98528.66;;;6.07;68.79
48964;BME280;34776;48.180;16.420;2024-02-26T01:44:33;98530.69;;;6.02;68.66
48964;BME280;34776;48.180;16.420;2024-02-26T01:46:58;98529.31;;;5.95;68.81
48964;BME280;34776;48.180;16.420;2024-02-26T01:49:26;98515.47;;;5.89;68.73
48964;BME280;34776;48.180;16.420;2024-02-26T01:51:52;98515.78;;;5.83;68.90
48964;BME280;34776;48.180;16.420;2024-02-26T01:54:18;98508.13;;;5.79;68.96
48964;BME280;34776;48.180;16.420;2024-02-26T01:56:43;98517.97;;;5.75;69.22
48964;BME280;34776;48.180;16.420;2024-02-26T01:59:13;98513.72;;;5.73;69.22
48964;BME280;34776;48.180;16.420;2024-02-26T02:01:39;98506.06;;;5.68;69.20
48964;BME280;34776;48.180;16.420;2024-02-26T02:04:06;98503.75;;;5.62;69.25
48964;BME280;34776;48.180;16.420;2024-02-26T02:06:32;98504.00;;;5.57;69.58
48964;BME280;34776;48.180;16.420;2024-02-26T02:08:59;98510.19;;;5.56;69.55
48964;BME280;34776;48.180;16.420;2024-02-26T02:11:32;98512.16;;;5.53;69.89
48964;BME280;34776;48.180;16.420;2024-02-26T02:13:57;98517.41;;;5.53;69.44
48964;BME280;34776;48.180;16.420;2024-02-26T02:16:23;98508.75;;;5.51;69.75
48964;BME280;34776;48.180;16.420;2024-02-26T02:18:48;98512.47;;;5.46;69.65
48964;BME280;34776;48.180;16.420;2024-02-26T02:21:13;98519.53;;;5.46;69.84
48964;BME280;34776;48.180;16.420;2024-02-26T02:23:39;98509.13;;;5.43;69.88
48964;BME280;34776;48.180;16.420;2024-02-26T02:26:04;98511.94;;;5.40;69.62
48964;BME280;34776;48.180;16.420;2024-02-26T02:28:30;98505.97;;;5.36;69.95
48964;BME280;34776;48.180;16.420;2024-02-26T02:30:56;98512.00;;;5.38;70.11
48964;BME280;34776;48.180;16.420;2024-02-26T02:33:22;98508.53;;;5.38;70.20
48964;BME280;34776;48.180;16.420;2024-02-26T02:35:48;98504.25;;;5.35;70.21
48964;BME280;34776;48.180;16.420;2024-02-26T02:38:17;98499.16;;;5.32;70.10
48964;BME280;34776;48.180;16.420;2024-02-26T02:40:42;98501.13;;;5.27;69.98
48964;BME280;34776;48.180;16.420;2024-02-26T02:43:07;98497.75;;;5.25;70.76
48964;BME280;34776;48.180;16.420;2024-02-26T02:45:34;98495.88;;;5.27;70.65
48964;BME280;34776;48.180;16.420;2024-02-26T02:47:59;98486.13;;;5.29;70.70
48964;BME280;34776;48.180;16.420;2024-02-26T02:50:25;98478.22;;;5.29;70.88
48964;BME280;34776;48.180;16.420;2024-02-26T02:52:50;98477.38;;;5.28;71.04
48964;BME280;34776;48.180;16.420;2024-02-26T02:55:18;98472.94;;;5.29;70.90
48964;BME280;34776;48.180;16.420;2024-02-26T02:57:43;98472.16;;;5.27;70.54
48964;BME280;34776;48.180;16.420;2024-02-26T03:00:10;98474.13;;;5.23;70.52
48964;BME280;34776;48.180;16.420;2024-02-26T03:02:36;98468.16;;;5.20;70.61
48964;BME280;34776;48.180;16.420;2024-02-26T03:05:03;98464.75;;;5.18;70.61
48964;BME280;34776;48.180;16.420;2024-02-26T03:07:30;98461.28;;;5.17;70.56
48964;BME280;34776;48.180;16.420;2024-02-26T03:09:55;98461.34;;;5.16;70.55
48964;BME280;34776;48.180;16.420;2024-02-26T03:12:21;98458.88;;;5.13;70.75
48964;BME280;34776;48.180;16.420;2024-02-26T03:14:47;98452.66;;;5.14;71.49
48964;BME280;34776;48.180;16.420;2024-02-26T03:17:14;98453.06;;;5.23;72.13
48964;BME280;34776;48.180;16.420;2024-02-26T03:19:39;98446.28;;;5.35;72.17
48964;BME280;34776;48.180;16.420;2024-02-26T03:22:04;98457.28;;;5.43;72.30
48964;BME280;34776;48.180;16.420;2024-02-26T03:24:30;98445.50;;;5.51;72.33
48964;BME280;34776;48.180;16.420;2024-02-26T03:26:55;98450.28;;;5.60;72.43
48964;BME280;34776;48.180;16.420;2024-02-26T03:29:21;98453.38;;;5.68;72.41
48964;BME280;34776;48.180;16.420;2024-02-26T03:31:46;98453.81;;;5.76;72.39
48964;BME280;34776;48.180;16.420;2024-02-26T03:34:12;98453.31;;;5.85;72.17
48964;BME280;34776;48.180;16.420;2024-02-26T03:36:39;98447.63;;;5.93;72.08
48964;BME280;34776;48.180;16.420;2024-02-26T03:39:04;98444.63;;;6.01;72.22
48964;BME280;34776;48.180;16.420;2024-02-26T03:41:33;98452.97;;;6.09;71.90
48964;BME280;34776;48.180;16.420;2024-02-26T03:43:58;98456.19;;;6.14;71.68
48964;BME280;34776;48.180;16.420;2024-02-26T03:46:24;98453.34;;;6.17;71.60
48964;BME280;34776;48.180;16.420;2024-02-26T03:48:50;98450.56;;;6.20;71.40
48964;BME280;34776;48.180;16.420;2024-02-26T03:51:15;98458.22;;;6.25;71.41
48964;BME280;34776;48.180;16.420;2024-02-26T03:53:40;98455.50;;;6.26;71.29
48964;BME280;34776;48.180;16.420;2024-02-26T03:56:06;98447.53;;;6.28;71.14
48964;BME280;34776;48.180;16.420;2024-02-26T03:58:32;98455.16;;;6.33;71.38
48964;BME280;34776;48.180;16.420;2024-02-26T04:01:00;98453.09;;;6.38;71.06
48964;BME280;34776;48.180;16.420;2024-02-26T04:03:26;98455.66;;;6.39;71.06
48964;BME280;34776;48.180;16.420;2024-02-26T04:05:52;98456.34;;;6.43;70.83
48964;BME280;34776;48.180;16.420;2024-02-26T04:08:17;98452.63;;;6.47;70.71
48964;BME280;34776;48.180;16.420;2024-02-26T04:10:43;98449.22;;;6.45;70.93
48964;BME280;34776;48.180;16.420;2024-02-26T04:13:08;98444.84;;;6.44;71.01
48964;BME280;34776;48.180;16.420;2024-02-26T04:15:33;98443.94;;;6.45;71.08
48964;BME280;34776;48.180;16.420;2024-02-26T04:17:59;98438.66;;;6.45;71.19
48964;BME280;34776;48.180;16.420;2024-02-26T04:20:24;98441.38;;;6.43;71.17
48964;BME280;34776;48.180;16.420;2024-02-26T04:22:51;98440.53;;;6.43;71.35
48964;BME280;34776;48.180;16.420;2024-02-26T04:25:16;98452.78;;;6.44;71.19
48964;BME280;34776;48.180;16.420;2024-02-26T04:27:43;98447.69;;;6.41;71.31
48964;BME280;34776;48.180;16.420;2024-02-26T04:30:08;98445.13;;;6.39;71.21
48964;BME280;34776;48.180;16.420;2024-02-26T04:32:34;98432.00;;;6.38;71.32
48964;BME280;34776;48.180;16.420;2024-02-26T04:35:03;98442.56;;;6.38;71.40
48964;BME280;34776;48.180;16.420;2024-02-26T04:37:29;98438.31;;;6.35;71.48
48964;BME280;34776;48.180;16.420;2024-02-26T04:39:58;98444.63;;;6.33;71.51
48964;BME280;34776;48.180;16.420;2024-02-26T04:42:23;98446.66;;;6.27;71.63
48964;BME280;34776;48.180;16.420;2024-02-26T04:44:48;98438.84;;;6.26;71.76
48964;BME280;34776;48.180;16.420;2024-02-26T04:47:14;98445.28;;;6.20;72.06
48964;BME280;34776;48.180;16.420;2024-02-26T04:49:40;98442.72;;;6.19;72.18
48964;BME280;34776;48.180;16.420;2024-02-26T04:52:06;98442.03;;;6.15;72.47
48964;BME280;34776;48.180;16.420;2024-02-26T04:54:31;98443.06;;;6.13;72.41
48964;BME280;34776;48.180;16.420;2024-02-26T04:56:56;98452.78;;;6.12;72.43
48964;BME280;34776;48.180;16.420;2024-02-26T04:59:22;98452.00;;;6.10;72.47
48964;BME280;34776;48.180;16.420;2024-02-26T05:01:47;98444.28;;;6.07;72.59
48964;BME280;34776;48.180;16.420;2024-02-26T05:04:12;98453.19;;;6.04;72.68
48964;BME280;34776;48.180;16.420;2024-02-26T05:06:39;98451.75;;;5.99;72.83
48964;BME280;34776;48.180;16.420;2024-02-26T05:09:04;98457.19;;;5.96;73.14
48964;BME280;34776;48.180;16.420;2024-02-26T05:11:30;98452.91;;;5.93;73.17
48964;BME280;34776;48.180;16.420;2024-02-26T05:13:56;98455.59;;;5.92;73.15
48964;BME280;34776;48.180;16.420;2024-02-26T05:16:23;98446.94;;;5.89;73.01
48964;BME280;34776;48.180;16.420;2024-02-26T05:18:51;98452.47;;;5.85;73.17
48964;BME280;34776;48.180;16.420;2024-02-26T05:21:16;98453.47;;;5.82;73.39
48964;BME280;34776;48.180;16.420;2024-02-26T05:23:41;98457.97;;;5.80;73.16
48964;BME280;34776;48.180;16.420;2024-02-26T05:26:09;98457.22;;;5.78;72.94
48964;BME280;34776;48.180;16.420;2024-02-26T05:28:34;98463.66;;;5.73;73.00
48964;BME280;34776;48.180;16.420;2024-02-26T05:31:00;98463.72;;;5.71;73.07
48964;BME280;34776;48.180;16.420;2024-02-26T05:33:25;98456.94;;;5.67;73.25
48964;BME280;34776;48.180;16.420;2024-02-26T05:35:50;98452.66;;;5.64;73.19
48964;BME280;34776;48.180;16.420;2024-02-26T05:38:15;98461.34;;;5.66;73.22
48964;BME280;34776;48.180;16.420;2024-02-26T05:40:41;98461.53;;;5.63;73.33
48964;BME280;34776;48.180;16.420;2024-02-26T05:43:06;98466.03;;;5.61;73.46
48964;BME280;34776;48.180;16.420;2024-02-26T05:45:33;98467.81;;;5.61;73.28
48964;BME280;34776;48.180;16.420;2024-02-26T05:47:58;98469.50;;;5.62;73.33
48964;BME280;34776;48.180;16.420;2024-02-26T05:50:24;98469.50;;;5.62;73.20
48964;BME280;34776;48.180;16.420;2024-02-26T05:52:50;98473.84;;;5.63;73.14
48964;BME280;34776;48.180;16.420;2024-02-26T05:55:15;98478.34;;;5.61;73.02
48964;BME280;34776;48.180;16.420;2024-02-26T05:57:41;98483.44;;;5.64;73.12
48964;BME280;34776;48.180;16.420;2024-02-26T06:00:06;98487.81;;;5.65;72.98
48964;BME280;34776;48.180;16.420;2024-02-26T06:02:32;98489.50;;;5.66;73.16
48964;BME280;34776;48.180;16.420;2024-02-26T06:05:01;98491.09;;;5.68;73.23
48964;BME280;34776;48.180;16.420;2024-02-26T06:07:26;98497.06;;;5.72;73.05
48964;BME280;34776;48.180;16.420;2024-02-26T06:09:53;98493.50;;;5.73;72.93
48964;BME280;34776;48.180;16.420;2024-02-26T06:12:18;98503.50;;;5.66;73.93
48964;BME280;34776;48.180;16.420;2024-02-26T06:14:43;98504.03;;;5.73;73.40
48964;BME280;34776;48.180;16.420;2024-02-26T06:17:08;98508.97;;;5.79;72.89
48964;BME280;34776;48.180;16.420;2024-02-26T06:19:34;98502.63;;;5.83;72.95
48964;BME280;34776;48.180;16.420;2024-02-26T06:21:59;98510.38;;;5.86;73.07
48964;BME280;34776;48.180;16.420;2024-02-26T06:24:24;98496.09;;;5.90;73.27
48964;BME280;34776;48.180;16.420;2024-02-26T06:26:50;98491.38;;;5.97;73.38
48964;BME280;34776;48.180;16.420;2024-02-26T06:29:15;98493.63;;;6.05;73.35
48964;BME280;34776;48.180;16.420;2024-02-26T06:31:42;98501.09;;;6.13;73.47
48964;BME280;34776;48.180;16.420;2024-02-26T06:34:08;98501.44;;;6.22;73.47
48964;BME280;34776;48.180;16.420;2024-02-26T06:36:33;98500.94;;;6.32;73.29
48964;BME280;34776;48.180;16.420;2024-02-26T06:38:59;98503.25;;;6.38;73.15
48964;BME280;34776;48.180;16.420;2024-02-26T06:41:25;98504.50;;;6.46;73.11
48964;BME280;34776;48.180;16.420;2024-02-26T06:43:53;98511.09;;;6.55;72.96
48964;BME280;34776;48.180;16.420;2024-02-26T06:46:18;98513.34;;;6.61;72.88
48964;BME280;34776;48.180;16.420;2024-02-26T06:48:44;98508.78;;;6.65;73.09
48964;BME280;34776;48.180;16.420;2024-02-26T06:51:09;98521.47;;;6.74;73.11
48964;BME280;34776;48.180;16.420;2024-02-26T06:53:35;98515.72;;;6.82;72.95
48964;BME280;34776;48.180;16.420;2024-02-26T06:56:01;98511.81;;;6.89;72.82
48964;BME280;34776;48.180;16.420;2024-02-26T06:58:26;98516.75;;;6.95;72.94
48964;BME280;34776;48.180;16.420;2024-02-26T07:00:52;98509.22;;;7.03;72.84
48964;BME280;34776;48.180;16.420;2024-02-26T07:03:17;98507.75;;;7.14;72.67
48964;BME280;34776;48.180;16.420;2024-02-26T07:05:43;98505.44;;;7.23;72.43
48964;BME280;34776;48.180;16.420;2024-02-26T07:08:10;98505.63;;;7.35;72.28
48964;BME280;34776;48.180;16.420;2024-02-26T07:10:35;98504.16;;;7.45;72.14
48964;BME280;34776;48.180;16.420;2024-02-26T07:13:00;98503.41;;;7.57;72.12
48964;BME280;34776;48.180;16.420;2024-02-26T07:15:26;98508.13;;;7.66;71.80
48964;BME280;34776;48.180;16.420;2024-02-26T07:17:52;98508.66;;;7.73;71.53
48964;BME280;34776;48.180;16.420;2024-02-26T07:20:21;98513.19;;;7.85;71.55
48964;BME280;34776;48.180;16.420;2024-02-26T07:22:47;98514.22;;;7.97;71.29
48964;BME280;34776;48.180;16.420;2024-02-26T07:25:13;98510.16;;;8.06;71.12
48964;BME280;34776;48.180;16.420;2024-02-26T07:27:41;98523.56;;;8.17;70.73
48964;BME280;34776;48.180;16.420;2024-02-26T07:30:08;98520.25;;;8.28;70.59
48964;BME280;34776;48.180;16.420;2024-02-26T07:32:34;98531.78;;;8.41;70.50
48964;BME280;34776;48.180;16.420;2024-02-26T07:35:00;98532.72;;;8.54;70.18
48964;BME280;34776;48.180;16.420;2024-02-26T07:37:25;98524.09;;;8.65;70.06
48964;BME280;34776;48.180;16.420;2024-02-26T07:39:50;98523.28;;;8.78;69.59
48964;BME280;34776;48.180;16.420;2024-02-26T07:42:16;98506.59;;;8.90;69.48
48964;BME280;34776;48.180;16.420;2024-02-26T07:44:41;98520.25;;;9.11;69.22
48964;BME280;34776;48.180;16.420;2024-02-26T07:47:09;98508.41;;;9.17;68.73
48964;BME280;34776;48.180;16.420;2024-02-26T07:49:34;98515.72;;;9.26;68.78
48964;BME280;34776;48.180;16.420;2024-02-26T07:51:59;98504.28;;;9.38;68.47
48964;BME280;34776;48.180;16.420;2024-02-26T07:54:25;98511.00;;;9.57;68.17
48964;BME280;34776;48.180;16.420;2024-02-26T07:56:50;98517.81;;;9.86;67.60
48964;BME280;34776;48.180;16.420;2024-02-26T07:59:15;98515.69;;;10.04;66.98
48964;BME280;34776;48.180;16.420;2024-02-26T08:01:43;98533.75;;;10.38;66.79
48964;BME280;34776;48.180;16.420;2024-02-26T08:04:09;98528.03;;;12.66;65.29
48964;BME280;34776;48.180;16.420;2024-02-26T08:06:37;98517.47;;;15.83;59.14
48964;BME280;34776;48.180;16.420;2024-02-26T08:09:02;98524.88;;;17.47;54.77
48964;BME280;34776;48.180;16.420;2024-02-26T08:11:29;98519.84;;;18.83;51.96
48964;BME280;34776;48.180;16.420;2024-02-26T08:13:55;98512.44;;;19.85;47.37
48964;BME280;34776;48.180;16.420;2024-02-26T08:16:20;98520.38;;;20.51;45.30
48964;BME280;34776;48.180;16.420;2024-02-26T08:18:45;98517.41;;;20.29;44.98
48964;BME280;34776;48.180;16.420;2024-02-26T08:21:11;98508.69;;;20.75;44.06
48964;BME280;34776;48.180;16.420;2024-02-26T08:23:37;98512.59;;;21.26;41.36
48964;BME280;34776;48.180;16.420;2024-02-26T08:26:02;98514.00;;;20.91;41.29
48964;BME280;34776;48.180;16.420;2024-02-26T08:28:29;98505.69;;;21.55;40.65
48964;BME280;34776;48.180;16.420;2024-02-26T08:30:54;98499.78;;;21.52;39.50
48964;BME280;34776;48.180;16.420;2024-02-26T08:33:20;98489.09;;;21.58;39.10
48964;BME280;34776;48.180;16.420;2024-02-26T08:35:45;98505.28;;;22.34;39.40
48964;BME280;34776;48.180;16.420;2024-02-26T08:38:10;98500.78;;;22.71;37.77
48964;BME280;34776;48.180;16.420;2024-02-26T08:40:36;98502.84;;;22.69;37.70
48964;BME280;34776;48.180;16.420;2024-02-26T08:43:02;98502.91;;;22.01;37.45
48964;BME280;34776;48.180;16.420;2024-02-26T08:45:27;98505.66;;;22.31;36.95
48964;BME280;34776;48.180;16.420;2024-02-26T08:47:52;98506.28;;;22.18;36.90
48964;BME280;34776;48.180;16.420;2024-02-26T08:50:18;98506.06;;;22.43;36.02
48964;BME280;34776;48.180;16.420;2024-02-26T08:52:43;98504.09;;;22.52;36.00
48964;BME280;34776;48.180;16.420;2024-02-26T08:55:09;98501.06;;;23.27;35.66
48964;BME280;34776;48.180;16.420;2024-02-26T08:57:34;98499.25;;;23.78;33.74
48964;BME280;34776;48.180;16.420;2024-02-26T09:00:00;98494.72;;;23.63;33.92
48964;BME280;34776;48.180;16.420;2024-02-26T09:02:26;98502.09;;;23.48;34.14
48964;BME280;34776;48.180;16.420;2024-02-26T09:04:51;98499.56;;;23.46;33.88
48964;BME280;34776;48.180;16.420;2024-02-26T09:07:19;98493.53;;;23.73;33.52
48964;BME280;34776;48.180;16.420;2024-02-26T09:10:05;98494.47;;;23.37;30.68
48964;BME280;34776;48.180;16.420;2024-02-26T09:12:33;98494.63;;;23.14;34.25
48964;BME280;34776;48.180;16.420;2024-02-26T09:14:59;98486.38;;;23.22;34.18
48964;BME280;34776;48.180;16.420;2024-02-26T09:17:24;98502.75;;;22.77;34.57
48964;BME280;34776;48.180;16.420;2024-02-26T09:19:49;98501.88;;;22.92;34.42
48964;BME280;34776;48.180;16.420;2024-02-26T09:22:15;98506.41;;;23.21;34.36
48964;BME280;34776;48.180;16.420;2024-02-26T09:24:40;98509.84;;;23.29;33.22
48964;BME280;34776;48.180;16.420;2024-02-26T09:27:07;98500.97;;;22.69;34.05
48964;BME280;34776;48.180;16.420;2024-02-26T09:29:32;98509.03;;;22.99;34.27
48964;BME280;34776;48.180;16.420;2024-02-26T09:31:58;98503.25;;;23.39;33.42
48964;BME280;34776;48.180;16.420;2024-02-26T09:34:23;98497.25;;;23.86;33.72
48964;BME280;34776;48.180;16.420;2024-02-26T09:36:49;98500.84;;;24.22;33.43
48964;BME280;34776;48.180;16.420;2024-02-26T09:39:14;98502.16;;;23.55;33.94
48964;BME280;34776;48.180;16.420;2024-02-26T09:41:45;98503.84;;;22.83;34.43
48964;BME280;34776;48.180;16.420;2024-02-26T09:44:12;98510.41;;;22.29;34.81
48964;BME280;34776;48.180;16.420;2024-02-26T09:46:42;98497.25;;;21.50;36.06
48964;BME280;34776;48.180;16.420;2024-02-26T09:49:08;98515.56;;;20.85;36.23
48964;BME280;34776;48.180;16.420;2024-02-26T09:51:34;98504.94;;;20.20;37.08
48964;BME280;34776;48.180;16.420;2024-02-26T09:53:59;98511.91;;;19.65;38.12
48964;BME280;34776;48.180;16.420;2024-02-26T09:56:26;98510.38;;;19.21;38.14
48964;BME280;34776;48.180;16.420;2024-02-26T09:58:52;98514.91;;;18.70;38.30
48964;BME280;34776;48.180;16.420;2024-02-26T10:01:20;98520.41;;;18.26;38.97
48964;BME280;34776;48.180;16.420;2024-02-26T10:03:50;98516.25;;;17.61;39.39
48964;BME280;34776;48.180;16.420;2024-02-26T10:06:17;98524.03;;;17.29;39.82
48964;BME280;34776;48.180;16.420;2024-02-26T10:08:43;98521.00;;;16.96;39.53
48964;BME280;34776;48.180;16.420;2024-02-26T10:11:08;98513.75;;;16.78;39.83
48964;BME280;34776;48.180;16.420;2024-02-26T10:13:35;98516.38;;;16.88;39.90
48964;BME280;34776;48.180;16.420;2024-02-26T10:16:03;98518.22;;;16.88;39.90
48964;BME280;34776;48.180;16.420;2024-02-26T10:18:48;98519.31;;;16.95;39.04
48964;BME280;34776;48.180;16.420;2024-02-26T10:21:18;98518.91;;;16.90;39.80
48964;BME280;34776;48.180;16.420;2024-02-26T10:23:45;98514.56;;;16.89;40.15
48964;BME280;34776;48.180;16.420;2024-02-26T10:26:11;98512.84;;;16.88;40.05
48964;BME280;34776;48.180;16.420;2024-02-26T10:28:38;98514.34;;;16.72;40.56
48964;BME280;34776;48.180;16.420;2024-02-26T10:31:04;98511.56;;;16.64;40.31
48964;BME280;34776;48.180;16.420;2024-02-26T10:33:29;98509.31;;;16.59;40.43
48964;BME280;34776;48.180;16.420;2024-02-26T10:35:55;98507.38;;;16.52;40.44
48964;BME280;34776;48.180;16.420;2024-02-26T10:38:20;98513.09;;;16.39;40.38
48964;BME280;34776;48.180;16.420;2024-02-26T10:40:48;98510.53;;;16.37;40.75
48964;BME280;34776;48.180;16.420;2024-02-26T10:43:13;98502.59;;;16.46;40.55
48964;BME280;34776;48.180;16.420;2024-02-26T10:45:41;98519.41;;;16.48;40.56
48964;BME280;34776;48.180;16.420;2024-02-26T10:48:14;98513.13;;;16.29;40.72
48964;BME280;34776;48.180;16.420;2024-02-26T10:50:42;98514.72;;;16.22;40.90
48964;BME280;34776;48.180;16.420;2024-02-26T10:53:15;98513.00;;;16.21;40.55
48964;BME280;34776;48.180;16.420;2024-02-26T10:55:43;98505.28;;;16.18;40.22
48964;BME280;34776;48.180;16.420;2024-02-26T10:58:12;98507.84;;;16.10;40.20
48964;BME280;34776;48.180;16.420;2024-02-26T11:00:39;98510.00;;;15.96;40.10
48964;BME280;34776;48.180;16.420;2024-02-26T11:03:05;98494.88;;;16.05;39.89
48964;BME280;34776;48.180;16.420;2024-02-26T11:05:33;98499.91;;;16.18;39.95
48964;BME280;34776;48.180;16.420;2024-02-26T11:08:00;98498.75;;;16.30;39.77
48964;BME280;34776;48.180;16.420;2024-02-26T11:10:27;98510.91;;;16.52;39.58
48964;BME280;34776;48.180;16.420;2024-02-26T11:12:56;98503.72;;;16.53;39.34
48964;BME280;34776;48.180;16.420;2024-02-26T11:15:22;98498.53;;;16.69;39.59
48964;BME280;34776;48.180;16.420;2024-02-26T11:17:48;98495.38;;;16.83;39.25
48964;BME280;34776;48.180;16.420;2024-02-26T11:20:14;98486.63;;;16.81;38.94
48964;BME280;34776;48.180;16.420;2024-02-26T11:22:41;98478.44;;;16.83;39.08
48964;BME280;34776;48.180;16.420;2024-02-26T11:25:08;98489.75;;;16.77;39.56
48964;BME280;34776;48.180;16.420;2024-02-26T11:27:44;98485.22;;;16.77;39.00
48964;BME280;34776;48.180;16.420;2024-02-26T11:30:13;98486.50;;;16.73;38.87
48964;BME280;34776;48.180;16.420;2024-02-26T11:32:39;98488.84;;;16.86;39.09
48964;BME280;34776;48.180;16.420;2024-02-26T11:35:05;98485.06;;;16.89;38.40
48964;BME280;34776;48.180;16.420;2024-02-26T11:37:31;98477.53;;;16.92;38.15
48964;BME280;34776;48.180;16.420;2024-02-26T11:39:59;98488.09;;;16.94;37.76
48964;BME280;34776;48.180;16.420;2024-02-26T11:42:26;98478.44;;;16.83;38.17
48964;BME280;34776;48.180;16.420;2024-02-26T11:44:51;98482.13;;;16.82;38.08
48964;BME280;34776;48.180;16.420;2024-02-26T11:47:21;98463.75;;;16.77;37.76
48964;BME280;34776;48.180;16.420;2024-02-26T11:49:48;98459.25;;;16.78;36.99
48964;BME280;34776;48.180;16.420;2024-02-26T11:52:14;98466.28;;;16.61;37.16
48964;BME280;34776;48.180;16.420;2024-02-26T11:54:45;98463.88;;;16.58;37.13
48964;BME280;34776;48.180;16.420;2024-02-26T11:57:27;98468.75;;;16.44;37.26
48964;BME280;34776;48.180;16.420;2024-02-26T11:59:53;98458.31;;;16.41;38.01
48964;BME280;34776;48.180;16.420;2024-02-26T12:02:39;98449.06;;;16.36;37.83
48964;BME280;34776;48.180;16.420;2024-02-26T12:05:17;98456.34;;;16.43;37.36
48964;BME280;34776;48.180;16.420;2024-02-26T12:07:49;98456.06;;;16.47;38.23
48964;BME280;34776;48.180;16.420;2024-02-26T12:10:26;98464.75;;;16.76;38.19
48964;BME280;34776;48.180;16.420;2024-02-26T12:12:54;98460.59;;;16.92;37.43
48964;BME280;34776;48.180;16.420;2024-02-26T12:15:22;98480.00;;;17.03;37.09
48964;BME280;34776;48.180;16.420;2024-02-26T12:17:48;98472.69;;;16.96;36.58
48964;BME280;34776;48.180;16.420;2024-02-26T12:20:16;98466.50;;;16.95;36.41
48964;BME280;34776;48.180;16.420;2024-02-26T12:22:45;98460.22;;;16.87;35.52
48964;BME280;34776;48.180;16.420;2024-02-26T12:25:11;98455.34;;;16.90;35.71
48964;BME280;34776;48.180;16.420;2024-02-26T12:27:38;98454.44;;;17.17;35.74
48964;BME280;34776;48.180;16.420;2024-02-26T12:30:05;98455.69;;;17.41;34.38
48964;BME280;34776;48.180;16.420;2024-02-26T12:32:31;98460.19;;;17.40;34.29
48964;BME280;34776;48.180;16.420;2024-02-26T12:34:57;98460.56;;;17.28;34.07
48964;BME280;34776;48.180;16.420;2024-02-26T12:37:24;98451.47;;;17.02;33.83
48964;BME280;34776;48.180;16.420;2024-02-26T12:39:49;98457.81;;;16.83;34.18
48964;BME280;34776;48.180;16.420;2024-02-26T12:42:15;98451.94;;;16.70;34.74
48964;BME280;34776;48.180;16.420;2024-02-26T12:44:40;98471.72;;;16.69;34.50
48964;BME280;34776;48.180;16.420;2024-02-26T12:47:09;98457.13;;;16.54;34.62
48964;BME280;34776;48.180;16.420;2024-02-26T12:49:35;98459.66;;;16.55;35.01
48964;BME280;34776;48.180;16.420;2024-02-26T12:52:01;98451.84;;;16.90;34.98